createdAt,value
2022-11-15T00:00:56.564Z,8.07
2022-11-15T00:03:28.330Z,8.13
2022-11-15T00:05:55.249Z,8.03
2022-11-15T00:08:21.860Z,8.12
2022-11-15T00:10:59.183Z,8.12
2022-11-15T00:13:26.287Z,8.08
2022-11-15T00:15:53.177Z,8.02
2022-11-15T00:18:19.913Z,8.06
2022-11-15T00:20:46.369Z,8.02
2022-11-15T00:23:13.094Z,8.05
2022-11-15T00:25:39.780Z,8.06
2022-11-15T00:28:06.253Z,8.01
2022-11-15T00:30:32.780Z,8.11
2022-11-15T00:33:04.100Z,8.21
2022-11-15T00:35:33.174Z,8.23
2022-11-15T00:37:59.893Z,8.24
2022-11-15T00:40:26.441Z,8.42
2022-11-15T00:42:55.186Z,8.49
2022-11-15T00:45:21.624Z,8.54
2022-11-15T00:47:48.052Z,8.53
2022-11-15T00:50:15.499Z,8.69
2022-11-15T00:52:42.427Z,8.73
2022-11-15T00:55:14.921Z,8.67
2022-11-15T00:57:41.453Z,8.79
2022-11-15T01:00:08.342Z,8.82
2022-11-15T01:02:35.500Z,8.86
2022-11-15T01:05:02.379Z,8.81
2022-11-15T01:07:28.931Z,8.91
2022-11-15T01:09:55.368Z,8.91
2022-11-15T01:12:21.818Z,8.99
2022-11-15T01:14:48.260Z,8.98
2022-11-15T01:17:14.663Z,9.03
2022-11-15T01:19:41.152Z,8.92
2022-11-15T01:22:07.562Z,8.99
2022-11-15T01:24:34.007Z,8.83
2022-11-15T01:27:00.415Z,8.81
2022-11-15T01:29:26.813Z,8.83
2022-11-15T01:31:54.810Z,8.76
2022-11-15T01:34:21.270Z,8.69
2022-11-15T01:36:47.663Z,8.63
2022-11-15T01:39:14.197Z,8.48
2022-11-15T01:41:40.647Z,8.38
2022-11-15T01:44:32.213Z,8.38
2022-11-15T01:47:01.916Z,8.29
2022-11-15T01:49:31.106Z,8.06
2022-11-15T01:51:59.259Z,8.09
2022-11-15T01:54:26.369Z,8.02
2022-11-15T01:57:19.079Z,8.05
2022-11-15T01:59:46.456Z,7.91
2022-11-15T02:02:13.260Z,7.92
2022-11-15T02:04:48.999Z,7.85
2022-11-15T02:07:20.827Z,7.82
2022-11-15T02:09:47.883Z,7.69
2022-11-15T02:12:19.635Z,7.65
2022-11-15T02:14:51.815Z,7.72
2022-11-15T02:17:30.426Z,7.68
2022-11-15T02:20:10.773Z,7.61
2022-11-15T02:22:37.058Z,7.64
2022-11-15T02:25:18.797Z,7.52
2022-11-15T02:27:57.646Z,7.41
2022-11-15T02:30:35.846Z,7.35
2022-11-15T02:33:14.217Z,7.27
2022-11-15T02:35:55.935Z,7.24
2022-11-15T02:39:02.758Z,7.21
2022-11-15T02:41:44.452Z,7.07
2022-11-15T02:44:23.300Z,7.09
2022-11-15T02:47:14.429Z,7.01
2022-11-15T02:49:45.202Z,6.94
2022-11-15T02:52:20.193Z,6.87
2022-11-15T02:55:01.018Z,6.87
2022-11-15T02:57:39.725Z,6.80
2022-11-15T03:00:35.266Z,6.74
2022-11-15T03:03:25.409Z,6.66
2022-11-15T03:05:59.472Z,6.57
2022-11-15T03:08:40.825Z,6.54
2022-11-15T03:11:14.524Z,6.37
2022-11-15T03:13:53.233Z,6.43
2022-11-15T03:16:40.594Z,6.46
2022-11-15T03:19:25.917Z,6.32
2022-11-15T03:21:54.761Z,6.38
2022-11-15T03:24:25.978Z,6.27
2022-11-15T03:26:55.883Z,6.35
2022-11-15T03:29:28.270Z,6.30
2022-11-15T03:32:06.806Z,6.38
2022-11-15T03:34:48.497Z,6.32
2022-11-15T03:37:16.974Z,6.33
2022-11-15T03:39:44.694Z,6.41
2022-11-15T03:42:33.615Z,6.42
2022-11-15T03:45:09.907Z,6.47
2022-11-15T03:47:42.614Z,6.48
2022-11-15T03:50:13.362Z,6.52
2022-11-15T03:52:42.039Z,6.47
2022-11-15T03:55:12.187Z,6.60
2022-11-15T03:57:39.008Z,6.55
2022-11-15T04:00:06.626Z,6.69
2022-11-15T04:02:33.149Z,6.74
2022-11-15T04:04:59.532Z,6.76
2022-11-15T04:07:26.186Z,6.76
2022-11-15T04:10:05.000Z,6.82
2022-11-15T04:12:41.553Z,6.79
2022-11-15T04:15:11.276Z,6.90
2022-11-15T04:17:55.561Z,6.99
2022-11-15T04:20:43.623Z,7.00
2022-11-15T04:23:31.707Z,7.11
2022-11-15T04:26:00.995Z,7.20
2022-11-15T04:28:27.727Z,7.20
2022-11-15T04:30:56.965Z,7.28
2022-11-15T04:33:24.175Z,7.43
2022-11-15T04:36:09.212Z,7.48
2022-11-15T04:38:36.823Z,7.56
2022-11-15T04:41:04.077Z,7.59
2022-11-15T04:43:31.050Z,7.62
2022-11-15T04:45:57.671Z,7.74
2022-11-15T04:48:24.336Z,7.82
2022-11-15T04:50:50.927Z,7.90
2022-11-15T04:53:17.410Z,7.95
2022-11-15T04:55:47.298Z,8.08
2022-11-15T04:58:13.693Z,8.11
2022-11-15T05:00:41.023Z,8.17
2022-11-15T05:03:26.123Z,8.27
2022-11-15T05:05:52.573Z,8.25
2022-11-15T05:08:18.976Z,8.36
2022-11-15T05:10:45.854Z,8.46
2022-11-15T05:13:12.339Z,8.49
2022-11-15T05:15:38.984Z,8.49
2022-11-15T05:18:05.439Z,8.64
2022-11-15T05:20:31.908Z,8.62
2022-11-15T05:22:58.397Z,8.64
2022-11-15T05:25:25.246Z,8.76
2022-11-15T05:27:52.294Z,8.74
2022-11-15T05:30:18.851Z,8.81
2022-11-15T05:32:45.851Z,8.82
2022-11-15T05:35:27.035Z,8.90
2022-11-15T05:37:53.514Z,8.91
2022-11-15T05:40:19.984Z,8.90
2022-11-15T05:42:47.740Z,8.90
2022-11-15T05:45:14.849Z,8.90
2022-11-15T05:47:42.267Z,8.98
2022-11-15T05:50:12.438Z,8.94
2022-11-15T05:52:42.468Z,9.03
2022-11-15T05:55:10.313Z,9.03
2022-11-15T05:57:37.133Z,9.01
2022-11-15T06:00:04.589Z,9.00
2022-11-15T06:02:31.339Z,9.01
2022-11-15T06:04:57.827Z,9.12
2022-11-15T06:07:24.365Z,9.19
2022-11-15T06:09:50.783Z,9.20
2022-11-15T06:12:17.200Z,9.16
2022-11-15T06:14:43.649Z,9.30
2022-11-15T06:17:11.460Z,9.26
2022-11-15T06:19:38.101Z,9.37
2022-11-15T06:22:04.513Z,9.39
2022-11-15T06:24:30.919Z,9.40
2022-11-15T06:26:58.416Z,9.38
2022-11-15T06:29:24.826Z,9.51
2022-11-15T06:31:51.304Z,9.53
2022-11-15T06:34:17.742Z,9.59
2022-11-15T06:36:44.289Z,9.53
2022-11-15T06:39:10.743Z,9.68
2022-11-15T06:41:37.317Z,9.50
2022-11-15T06:44:04.052Z,9.69
2022-11-15T06:46:30.541Z,9.75
2022-11-15T06:48:57.001Z,9.68
2022-11-15T06:51:23.473Z,9.84
2022-11-15T06:53:49.963Z,9.80
2022-11-15T06:56:16.359Z,9.83
2022-11-15T06:58:42.744Z,9.92
2022-11-15T07:01:11.962Z,10.01
2022-11-15T07:03:40.797Z,10.00
2022-11-15T07:06:08.563Z,10.07
2022-11-15T07:08:35.909Z,10.07
2022-11-15T07:11:05.164Z,10.17
2022-11-15T07:13:36.665Z,10.23
2022-11-15T07:16:05.809Z,10.19
2022-11-15T07:18:35.350Z,10.31
2022-11-15T07:21:06.594Z,10.35
2022-11-15T07:23:33.590Z,10.34
2022-11-15T07:26:00.913Z,10.34
2022-11-15T07:28:28.270Z,10.43
2022-11-15T07:30:55.533Z,10.45
2022-11-15T07:33:22.497Z,10.54
2022-11-15T07:35:51.836Z,10.55
2022-11-15T07:38:21.165Z,10.66
2022-11-15T07:40:48.018Z,10.70
2022-11-15T07:43:14.688Z,10.71
2022-11-15T07:45:46.638Z,10.78
2022-11-15T07:48:13.250Z,10.75
2022-11-15T07:50:43.570Z,10.73
2022-11-15T07:53:10.482Z,11.04
2022-11-15T07:55:37.152Z,10.96
2022-11-15T07:58:09.316Z,10.97
2022-11-15T08:00:36.184Z,11.01
2022-11-15T08:03:08.112Z,11.02
2022-11-15T08:05:35.940Z,11.08
2022-11-15T08:08:03.373Z,11.12
2022-11-15T08:10:30.659Z,11.15
2022-11-15T08:13:02.667Z,11.19
2022-11-15T08:15:29.755Z,11.22
2022-11-15T08:18:01.321Z,11.21
2022-11-15T08:20:32.803Z,11.27
2022-11-15T08:23:00.835Z,11.17
2022-11-15T08:25:28.609Z,11.23
2022-11-15T08:27:56.873Z,11.38
2022-11-15T08:30:24.827Z,11.34
2022-11-15T08:32:54.400Z,11.42
2022-11-15T08:35:27.659Z,11.45
2022-11-15T08:37:55.591Z,11.49
2022-11-15T08:40:22.352Z,11.43
2022-11-15T08:42:49.205Z,11.54
2022-11-15T08:45:15.992Z,11.53
2022-11-15T08:47:42.572Z,11.57
2022-11-15T08:50:09.811Z,11.63
2022-11-15T08:52:36.253Z,11.61
2022-11-15T08:55:03.020Z,11.65
2022-11-15T08:57:31.256Z,11.71
2022-11-15T08:59:58.276Z,11.78
2022-11-15T09:02:24.817Z,11.81
2022-11-15T09:04:51.271Z,11.81
2022-11-15T09:07:18.480Z,11.88
2022-11-15T09:09:44.970Z,11.86
2022-11-15T09:12:11.682Z,11.91
2022-11-15T09:14:38.397Z,11.94
2022-11-15T09:17:08.090Z,11.91
2022-11-15T09:19:34.480Z,11.91
2022-11-15T09:22:00.917Z,12.02
2022-11-15T09:24:27.602Z,12.03
2022-11-15T09:26:57.115Z,12.12
2022-11-15T09:29:23.673Z,12.16
2022-11-15T09:31:52.482Z,12.13
2022-11-15T09:34:18.995Z,12.26
2022-11-15T09:36:45.416Z,12.20
2022-11-15T09:39:11.830Z,12.35
2022-11-15T09:42:07.092Z,12.50
2022-11-15T09:44:41.891Z,12.59
2022-11-15T09:47:11.381Z,12.65
2022-11-15T09:49:38.058Z,12.71
2022-11-15T09:52:04.962Z,12.76
2022-11-15T09:54:52.764Z,12.87
2022-11-15T09:57:32.367Z,12.93
2022-11-15T10:03:14.424Z,13.19
2022-11-15T10:05:48.089Z,13.18
2022-11-15T10:08:26.744Z,13.21
2022-11-15T10:14:00.426Z,13.23
2022-11-15T10:16:49.539Z,13.30
2022-11-15T10:19:36.079Z,13.29
2022-11-15T10:22:26.695Z,13.28
2022-11-15T10:25:05.091Z,13.26
2022-11-15T10:27:31.642Z,13.30
2022-11-15T10:29:58.109Z,13.20
2022-11-15T10:32:24.682Z,13.24
2022-11-15T10:34:52.029Z,13.32
2022-11-15T10:37:32.675Z,13.41
2022-11-15T10:40:28.713Z,13.47
2022-11-15T10:43:16.932Z,13.44
2022-11-15T10:45:44.385Z,13.41
2022-11-15T10:48:13.923Z,13.43
2022-11-15T10:50:41.714Z,13.41
2022-11-15T10:53:33.317Z,13.48
2022-11-15T10:56:08.114Z,13.39
2022-11-15T10:58:44.990Z,13.46
2022-11-15T11:01:13.542Z,13.47
2022-11-15T11:03:41.801Z,13.46
2022-11-15T11:06:18.222Z,13.57
2022-11-15T11:09:22.551Z,13.66
2022-11-15T11:11:51.661Z,13.66
2022-11-15T11:14:31.913Z,13.72
2022-11-15T11:17:10.581Z,13.90
2022-11-15T11:19:43.152Z,13.82
2022-11-15T11:22:35.917Z,13.85
2022-11-15T11:25:25.277Z,13.85
2022-11-15T11:28:03.488Z,13.89
2022-11-15T11:30:48.919Z,13.94
2022-11-15T11:33:34.452Z,14.00
2022-11-15T11:36:36.122Z,14.05
2022-11-15T11:39:25.361Z,14.13
2022-11-15T11:42:16.639Z,14.19
2022-11-15T11:44:47.730Z,14.22
2022-11-15T11:47:39.187Z,14.33
2022-11-15T11:50:16.659Z,14.32
2022-11-15T11:53:18.515Z,14.40
2022-11-15T11:55:53.944Z,14.43
2022-11-15T11:58:23.314Z,14.49
2022-11-15T12:01:09.897Z,14.52
2022-11-15T12:03:47.186Z,14.46
2022-11-15T12:06:28.375Z,14.57
2022-11-15T12:09:02.852Z,14.55
2022-11-15T12:11:50.353Z,14.58
2022-11-15T12:14:38.514Z,14.71
2022-11-15T12:17:05.350Z,14.61
2022-11-15T12:19:32.190Z,14.77
2022-11-15T12:22:09.484Z,14.86
2022-11-15T12:24:59.615Z,14.87
2022-11-15T12:27:39.582Z,15.16
2022-11-15T12:30:22.186Z,15.29
2022-11-15T12:33:02.322Z,15.42
2022-11-15T12:35:43.213Z,15.45
2022-11-15T12:38:13.840Z,15.63
2022-11-15T12:41:29.224Z,15.71
2022-11-15T12:43:56.785Z,15.71
2022-11-15T12:46:43.645Z,15.76
2022-11-15T12:49:21.967Z,15.81
2022-11-15T12:51:48.338Z,15.81
2022-11-15T12:54:24.055Z,15.87
2022-11-15T12:57:08.747Z,15.92
2022-11-15T12:59:59.422Z,15.95
2022-11-15T13:02:30.210Z,15.95
2022-11-15T13:05:16.741Z,16.03
2022-11-15T13:07:43.173Z,15.99
2022-11-15T13:10:30.675Z,16.05
2022-11-15T13:13:02.968Z,16.04
2022-11-15T13:15:47.743Z,16.06
2022-11-15T13:18:36.775Z,16.12
2022-11-15T13:21:25.268Z,16.11
2022-11-15T13:23:56.297Z,16.18
2022-11-15T13:26:23.604Z,16.19
2022-11-15T13:28:53.260Z,16.28
2022-11-15T13:31:22.317Z,16.38
2022-11-15T13:33:48.861Z,16.42
2022-11-15T13:36:28.382Z,16.48
2022-11-15T13:39:03.399Z,16.56
2022-11-15T13:41:33.015Z,16.63
2022-11-15T13:44:01.301Z,16.72
2022-11-15T13:46:33.841Z,16.71
2022-11-15T13:49:06.104Z,16.87
2022-11-15T13:51:38.501Z,16.96
2022-11-15T13:54:14.422Z,16.99
2022-11-15T13:56:48.696Z,17.06
2022-11-15T13:59:49.471Z,17.30
2022-11-15T14:02:19.044Z,17.34
2022-11-15T14:04:55.001Z,17.47
2022-11-15T14:07:24.412Z,17.47
2022-11-15T14:09:50.939Z,17.56
2022-11-15T14:12:35.754Z,17.63
2022-11-15T14:15:39.357Z,17.57
2022-11-15T14:18:07.009Z,17.42
2022-11-15T14:20:35.361Z,17.22
2022-11-15T14:23:19.556Z,17.19
2022-11-15T14:26:00.089Z,17.07
2022-11-15T14:28:26.571Z,16.87
2022-11-15T14:30:55.829Z,16.69
2022-11-15T14:33:34.207Z,16.54
2022-11-15T14:36:27.116Z,16.49
2022-11-15T14:38:55.164Z,16.25
2022-11-15T14:41:22.596Z,16.12
2022-11-15T14:43:49.828Z,15.99
2022-11-15T14:46:16.279Z,15.86
2022-11-15T14:48:42.780Z,15.68
2022-11-15T14:51:18.130Z,15.63
2022-11-15T14:53:45.940Z,15.48
2022-11-15T14:56:13.088Z,15.31
2022-11-15T14:58:39.713Z,15.22
2022-11-15T15:01:16.964Z,15.10
2022-11-15T15:03:45.088Z,14.87
2022-11-15T15:06:17.718Z,14.70
2022-11-15T15:08:45.375Z,14.58
2022-11-15T15:11:16.721Z,14.55
2022-11-15T15:13:43.296Z,14.39
2022-11-15T15:16:09.731Z,14.22
2022-11-15T15:18:36.169Z,14.09
2022-11-15T15:21:08.129Z,13.98
2022-11-15T15:23:36.589Z,13.84
2022-11-15T15:26:03.409Z,13.72
2022-11-15T15:28:34.292Z,13.53
2022-11-15T15:31:01.552Z,13.48
2022-11-15T15:33:28.269Z,13.25
2022-11-15T15:35:54.754Z,13.22
2022-11-15T15:38:22.513Z,13.14
2022-11-15T15:40:51.524Z,13.02
2022-11-15T15:43:18.228Z,12.86
2022-11-15T15:45:45.950Z,12.75
2022-11-15T15:48:14.024Z,12.66
2022-11-15T15:50:40.627Z,12.56
2022-11-15T15:53:09.143Z,12.50
2022-11-15T15:55:35.891Z,12.37
2022-11-15T15:58:02.331Z,12.28
2022-11-15T16:00:28.999Z,12.11
2022-11-15T16:02:55.712Z,12.11
2022-11-15T16:05:23.231Z,12.02
2022-11-15T16:07:49.757Z,11.97
2022-11-15T16:10:21.752Z,11.88
2022-11-15T16:12:48.346Z,11.78
2022-11-15T16:15:15.162Z,11.75
2022-11-15T16:17:48.082Z,11.74
2022-11-15T16:20:40.356Z,11.71
2022-11-15T16:23:10.073Z,11.60
2022-11-15T16:25:56.970Z,11.69
2022-11-15T16:28:25.777Z,11.66
2022-11-15T16:31:02.215Z,11.73
2022-11-15T16:33:28.908Z,11.76
2022-11-15T16:35:55.385Z,11.74
2022-11-15T16:38:21.862Z,11.84
2022-11-15T16:40:48.400Z,11.90
2022-11-15T16:43:14.946Z,11.79
2022-11-15T16:45:41.378Z,11.94
2022-11-15T16:48:17.989Z,12.01
2022-11-15T16:50:44.489Z,11.98
2022-11-15T16:53:10.911Z,11.95
2022-11-15T16:55:37.625Z,11.99
2022-11-15T16:58:04.050Z,11.98
2022-11-15T17:00:30.598Z,11.97
2022-11-15T17:02:57.946Z,11.95
2022-11-15T17:05:27.257Z,11.91
2022-11-15T17:07:56.547Z,11.89
2022-11-15T17:10:24.692Z,11.88
2022-11-15T17:12:51.908Z,11.83
2022-11-15T17:15:18.888Z,11.87
2022-11-15T17:17:50.816Z,11.84
2022-11-15T17:20:18.825Z,11.81
2022-11-15T17:22:47.245Z,11.76
2022-11-15T17:25:14.558Z,11.71
2022-11-15T17:27:41.336Z,11.59
2022-11-15T17:30:08.369Z,11.58
2022-11-15T17:32:38.204Z,11.48
2022-11-15T17:35:14.820Z,11.53
2022-11-15T17:37:42.168Z,11.47
2022-11-15T17:40:09.326Z,11.33
2022-11-15T17:42:35.849Z,11.30
2022-11-15T17:45:08.189Z,11.26
2022-11-15T17:47:36.417Z,11.24
2022-11-15T17:50:02.987Z,11.27
2022-11-15T17:52:29.466Z,11.24
2022-11-15T17:54:55.850Z,11.21
2022-11-15T17:57:22.235Z,11.19
2022-11-15T17:59:48.970Z,11.17
2022-11-15T18:02:15.573Z,11.17
2022-11-15T18:04:42.049Z,11.09
2022-11-15T18:07:08.576Z,11.13
2022-11-15T18:09:34.999Z,11.11
2022-11-15T18:12:01.426Z,11.30
2022-11-15T18:14:27.961Z,11.34
2022-11-15T18:16:54.996Z,11.40
2022-11-15T18:19:22.818Z,11.36
2022-11-15T18:21:58.841Z,11.48
2022-11-15T18:24:30.747Z,11.57
2022-11-15T18:26:58.643Z,11.46
2022-11-15T18:29:28.493Z,11.56
2022-11-15T18:31:55.871Z,11.63
2022-11-15T18:34:24.304Z,11.72
2022-11-15T18:36:52.443Z,11.71
2022-11-15T18:39:19.902Z,11.80
2022-11-15T18:41:47.018Z,11.82
2022-11-15T18:44:14.019Z,11.80
2022-11-15T18:46:42.044Z,11.80
2022-11-15T18:49:09.786Z,11.81
2022-11-15T18:51:41.757Z,11.80
2022-11-15T18:54:10.839Z,11.74
2022-11-15T18:56:38.122Z,11.74
2022-11-15T18:59:05.665Z,11.75
2022-11-15T19:01:34.797Z,11.74
2022-11-15T19:04:13.385Z,11.73
2022-11-15T19:06:42.547Z,11.71
2022-11-15T19:09:10.497Z,11.68
2022-11-15T19:11:39.540Z,11.65
2022-11-15T19:14:14.548Z,11.74
2022-11-15T19:16:52.361Z,11.72
2022-11-15T19:19:21.699Z,11.67
2022-11-15T19:21:48.459Z,11.73
2022-11-15T19:24:15.303Z,11.75
2022-11-15T19:26:42.541Z,11.79
2022-11-15T19:29:14.087Z,11.77
2022-11-15T19:31:41.559Z,11.74
2022-11-15T19:34:08.631Z,11.75
2022-11-15T19:36:43.619Z,11.81
2022-11-15T19:39:12.967Z,11.81
2022-11-15T19:41:42.480Z,11.84
2022-11-15T19:44:10.421Z,11.75
2022-11-15T19:46:38.395Z,11.90
2022-11-15T19:49:07.120Z,11.91
2022-11-15T19:51:34.084Z,11.93
2022-11-15T19:54:06.149Z,11.97
2022-11-15T19:56:34.366Z,11.98
2022-11-15T19:59:00.823Z,12.04
2022-11-15T20:01:30.369Z,12.05
2022-11-15T20:03:59.409Z,12.12
2022-11-15T20:06:27.248Z,12.17
2022-11-15T20:08:54.295Z,12.22
2022-11-15T20:11:21.299Z,12.24
2022-11-15T20:13:48.413Z,12.32
2022-11-15T20:16:22.593Z,12.34
2022-11-15T20:18:50.399Z,12.41
2022-11-15T20:21:17.521Z,12.49
2022-11-15T20:23:44.510Z,12.57
2022-11-15T20:26:12.084Z,12.60
2022-11-15T20:28:39.802Z,12.63
2022-11-15T20:31:07.285Z,12.71
2022-11-15T20:33:33.812Z,12.76
2022-11-15T20:36:09.496Z,12.76
2022-11-15T20:38:36.179Z,12.79
2022-11-15T20:41:03.276Z,12.78
2022-11-15T20:43:29.736Z,12.80
2022-11-15T20:45:56.329Z,12.93
2022-11-15T20:48:23.187Z,12.93
2022-11-15T20:50:49.632Z,12.88
2022-11-15T20:53:19.970Z,12.95
2022-11-15T20:55:49.508Z,12.99
2022-11-15T20:58:17.174Z,13.03
2022-11-15T21:00:45.341Z,13.04
2022-11-15T21:03:12.991Z,13.09
2022-11-15T21:05:41.741Z,13.08
2022-11-15T21:08:09.580Z,13.08
2022-11-15T21:10:54.683Z,13.12
2022-11-15T21:13:21.253Z,13.04
2022-11-15T21:15:47.771Z,13.13
2022-11-15T21:18:14.926Z,13.14
2022-11-15T21:20:41.652Z,13.11
2022-11-15T21:23:09.112Z,13.15
2022-11-15T21:25:35.832Z,13.11
2022-11-15T21:28:02.910Z,13.16
2022-11-15T21:30:29.667Z,13.12
2022-11-15T21:32:56.065Z,13.00
2022-11-15T21:35:23.717Z,13.12
2022-11-15T21:37:56.139Z,13.10
2022-11-15T21:40:23.714Z,13.03
2022-11-15T21:42:50.264Z,13.02
2022-11-15T21:45:16.822Z,12.97
2022-11-15T21:47:46.145Z,12.97
2022-11-15T21:50:13.708Z,13.08
2022-11-15T21:52:40.541Z,13.08
2022-11-15T21:55:07.580Z,13.07
2022-11-15T21:57:34.037Z,13.02
2022-11-15T22:00:18.831Z,12.99
2022-11-15T22:02:45.222Z,13.04
2022-11-15T22:05:11.708Z,12.99
2022-11-15T22:07:38.273Z,13.03
2022-11-15T22:10:05.497Z,12.92
2022-11-15T22:12:31.984Z,13.01
2022-11-15T22:14:58.456Z,13.02
2022-11-15T22:17:44.894Z,12.98
2022-11-15T22:20:42.493Z,13.01
2022-11-15T22:22:59.581Z,13.03
2022-11-15T22:25:26.461Z,12.90
2022-11-15T22:27:53.717Z,13.01
2022-11-15T22:30:20.694Z,12.99
2022-11-15T22:32:47.475Z,13.00
2022-11-15T22:35:14.887Z,12.89
2022-11-15T22:37:41.524Z,12.97
2022-11-15T22:40:11.752Z,12.92
2022-11-15T22:42:38.290Z,13.12
2022-11-15T22:45:05.115Z,12.98
2022-11-15T22:47:31.663Z,12.89
2022-11-15T22:49:58.141Z,12.94
2022-11-15T22:52:24.601Z,12.83
2022-11-15T22:54:51.252Z,12.91
2022-11-15T22:57:17.735Z,12.81
2022-11-15T22:59:44.418Z,12.88
2022-11-15T23:02:10.869Z,12.82
2022-11-15T23:04:37.319Z,12.85
2022-11-15T23:07:04.159Z,12.85
2022-11-15T23:09:30.685Z,12.80
2022-11-15T23:12:15.459Z,12.78
2022-11-15T23:14:41.989Z,12.77
2022-11-15T23:17:08.421Z,12.72
2022-11-15T23:19:34.924Z,12.73
2022-11-15T23:22:19.953Z,12.73
2022-11-15T23:24:46.479Z,12.65
2022-11-15T23:27:15.551Z,12.67
2022-11-15T23:30:00.326Z,12.54
2022-11-15T23:32:45.150Z,12.48
2022-11-15T23:35:11.681Z,12.45
2022-11-15T23:37:38.288Z,12.47
2022-11-15T23:40:05.609Z,12.41
2022-11-15T23:42:32.215Z,12.33
2022-11-15T23:44:58.655Z,12.32
2022-11-15T23:47:25.191Z,12.22
2022-11-15T23:49:52.281Z,12.22
2022-11-15T23:52:18.713Z,12.25
2022-11-15T23:54:45.245Z,12.23
2022-11-15T23:57:12.401Z,12.22
2022-11-15T23:59:45.647Z,12.18
